createdAt,value
2022-09-04T00:00:08.623Z,21.90
2022-09-04T00:02:57.472Z,21.90
2022-09-04T00:05:45.678Z,21.90
2022-09-04T00:08:31.261Z,21.80
2022-09-04T00:11:08.372Z,21.80
2022-09-04T00:13:39.512Z,21.80
2022-09-04T00:16:17.093Z,21.80
2022-09-04T00:18:53.117Z,21.70
2022-09-04T00:21:25.300Z,21.70
2022-09-04T00:23:55.651Z,21.70
2022-09-04T00:26:42.656Z,21.70
2022-09-04T00:29:14.729Z,21.70
2022-09-04T00:31:47.248Z,21.80
2022-09-04T00:34:32.924Z,21.80
2022-09-04T00:37:04.808Z,21.80
2022-09-04T00:39:37.698Z,21.80
2022-09-04T00:42:04.506Z,21.80
2022-09-04T00:44:50.778Z,21.80
2022-09-04T00:47:17.792Z,21.80
2022-09-04T00:49:50.904Z,21.70
2022-09-04T00:52:37.101Z,21.70
2022-09-04T00:55:22.819Z,21.70
2022-09-04T00:58:03.598Z,21.70
2022-09-04T01:00:31.891Z,21.70
2022-09-04T01:03:07.855Z,21.70
2022-09-04T01:05:54.106Z,21.60
2022-09-04T01:08:29.952Z,21.60
2022-09-04T01:11:14.647Z,21.60
2022-09-04T01:13:50.930Z,21.60
2022-09-04T01:16:36.031Z,21.60
2022-09-04T01:19:21.670Z,21.60
2022-09-04T01:21:51.734Z,21.60
2022-09-04T01:24:29.222Z,21.60
2022-09-04T01:27:04.170Z,21.70
2022-09-04T01:29:56.702Z,21.60
2022-09-04T01:32:26.472Z,21.60
2022-09-04T01:34:53.215Z,21.70
2022-09-04T01:37:39.800Z,21.60
2022-09-04T01:40:35.336Z,21.60
2022-09-04T01:43:06.038Z,21.60
2022-09-04T01:45:38.150Z,21.70
2022-09-04T01:48:07.994Z,21.70
2022-09-04T01:50:35.813Z,21.70
2022-09-04T01:53:06.764Z,21.70
2022-09-04T01:55:42.655Z,21.70
2022-09-04T01:58:14.709Z,21.60
2022-09-04T02:00:50.429Z,21.60
2022-09-04T02:03:26.487Z,21.50
2022-09-04T02:05:53.822Z,21.50
2022-09-04T02:08:30.461Z,21.60
2022-09-04T02:11:02.654Z,21.60
2022-09-04T02:13:49.857Z,21.60
2022-09-04T02:16:22.845Z,21.60
2022-09-04T02:19:00.614Z,21.60
2022-09-04T02:21:39.263Z,21.60
2022-09-04T02:24:15.105Z,21.60
2022-09-04T02:26:44.989Z,21.50
2022-09-04T02:29:33.129Z,21.40
2022-09-04T02:32:00.188Z,21.50
2022-09-04T02:34:38.553Z,21.40
2022-09-04T02:37:05.416Z,21.40
2022-09-04T02:39:41.526Z,21.40
2022-09-04T02:42:28.131Z,21.50
2022-09-04T02:45:08.360Z,21.50
2022-09-04T02:47:38.332Z,21.50
2022-09-04T02:50:14.285Z,21.50
2022-09-04T02:52:49.512Z,21.50
2022-09-04T02:55:25.103Z,21.50
2022-09-04T02:58:11.538Z,21.50
2022-09-04T03:00:43.208Z,21.50
2022-09-04T03:03:17.086Z,21.40
2022-09-04T03:05:51.064Z,21.40
2022-09-04T03:08:17.997Z,21.40
2022-09-04T03:10:48.307Z,21.40
2022-09-04T03:13:33.882Z,21.50
2022-09-04T03:16:00.886Z,21.40
2022-09-04T03:18:35.168Z,21.50
2022-09-04T03:21:02.077Z,21.60
2022-09-04T03:23:40.167Z,21.70
2022-09-04T03:26:25.860Z,21.70
2022-09-04T03:29:06.361Z,21.60
2022-09-04T03:31:38.558Z,21.60
2022-09-04T03:34:24.341Z,21.40
2022-09-04T03:37:08.126Z,21.30
2022-09-04T03:39:34.991Z,21.10
2022-09-04T03:42:20.553Z,21.10
2022-09-04T03:44:52.256Z,21.10
2022-09-04T03:47:41.057Z,21.10
2022-09-04T03:50:17.502Z,21.00
2022-09-04T03:52:56.981Z,21.00
2022-09-04T03:55:33.832Z,21.00
2022-09-04T03:58:06.844Z,21.00
2022-09-04T04:00:42.184Z,21.00
2022-09-04T04:03:21.272Z,21.00
2022-09-04T04:06:12.958Z,20.90
2022-09-04T04:08:45.944Z,21.00
2022-09-04T04:11:28.178Z,21.00
2022-09-04T04:14:28.487Z,21.00
2022-09-04T04:17:17.566Z,21.00
2022-09-04T04:20:05.974Z,20.90
2022-09-04T04:22:53.042Z,20.80
2022-09-04T04:25:38.130Z,20.80
2022-09-04T04:28:17.221Z,20.80
2022-09-04T04:30:44.143Z,20.70
2022-09-04T04:33:26.073Z,20.70
2022-09-04T04:35:57.511Z,20.70
2022-09-04T04:38:36.559Z,20.60
2022-09-04T04:41:09.519Z,20.50
2022-09-04T04:43:36.294Z,20.50
2022-09-04T04:46:03.038Z,20.40
2022-09-04T04:48:36.842Z,20.40
2022-09-04T04:51:22.787Z,20.40
2022-09-04T04:53:49.550Z,20.30
2022-09-04T04:56:46.450Z,20.30
2022-09-04T04:59:20.669Z,20.30
2022-09-04T05:01:59.186Z,20.30
2022-09-04T05:04:40.365Z,20.40
2022-09-04T05:07:12.321Z,20.40
2022-09-04T05:09:47.913Z,20.40
2022-09-04T05:12:17.917Z,20.40
2022-09-04T05:14:58.006Z,20.50
2022-09-04T05:17:45.165Z,20.50
2022-09-04T05:20:21.662Z,20.50
2022-09-04T05:23:00.991Z,20.50
2022-09-04T05:25:33.888Z,20.50
2022-09-04T05:28:20.994Z,20.40
2022-09-04T05:30:47.782Z,20.40
2022-09-04T05:33:34.384Z,20.50
2022-09-04T05:36:17.102Z,20.50
2022-09-04T05:38:51.283Z,20.50
2022-09-04T05:41:35.130Z,20.60
2022-09-04T05:44:16.376Z,20.70
2022-09-04T05:47:01.674Z,20.70
2022-09-04T05:49:42.839Z,20.70
2022-09-04T05:52:28.737Z,20.80
2022-09-04T05:55:14.356Z,20.80
2022-09-04T05:58:01.461Z,20.90
2022-09-04T06:00:33.418Z,20.90
2022-09-04T06:03:06.398Z,20.90
2022-09-04T06:05:39.329Z,21.00
2022-09-04T06:08:28.491Z,21.10
2022-09-04T06:11:00.977Z,21.10
2022-09-04T06:13:45.477Z,21.20
2022-09-04T06:16:32.499Z,21.40
2022-09-04T06:19:18.125Z,21.40
2022-09-04T06:22:04.496Z,21.40
2022-09-04T06:24:43.573Z,21.50
2022-09-04T06:27:15.656Z,21.50
2022-09-04T06:29:50.916Z,21.50
2022-09-04T06:32:41.119Z,21.50
2022-09-04T06:35:14.380Z,21.50
2022-09-04T06:37:47.642Z,21.60
2022-09-04T06:40:23.652Z,21.60
2022-09-04T06:42:59.799Z,21.70
2022-09-04T06:45:26.566Z,21.80
2022-09-04T06:48:29.328Z,22.00
2022-09-04T06:51:10.929Z,22.10
2022-09-04T06:53:50.300Z,22.30
2022-09-04T06:56:35.730Z,22.40
2022-09-04T06:59:08.853Z,22.40
2022-09-04T07:01:48.810Z,22.50
2022-09-04T07:04:15.642Z,22.50
2022-09-04T07:06:51.655Z,22.60
2022-09-04T07:09:21.705Z,22.60
2022-09-04T07:11:48.491Z,22.70
2022-09-04T07:14:45.221Z,22.70
2022-09-04T07:17:20.679Z,22.80
2022-09-04T07:19:56.823Z,22.80
2022-09-04T07:22:29.832Z,22.90
2022-09-04T07:25:02.742Z,23.00
2022-09-04T07:27:41.916Z,23.10
2022-09-04T07:30:09.986Z,23.10
2022-09-04T07:32:53.460Z,23.20
2022-09-04T07:35:35.517Z,23.30
2022-09-04T07:38:22.633Z,23.30
2022-09-04T07:40:53.318Z,23.30
2022-09-04T07:43:54.489Z,23.40
2022-09-04T07:46:22.632Z,23.40
2022-09-04T07:49:19.169Z,23.40
2022-09-04T07:51:54.672Z,23.40
2022-09-04T07:54:39.350Z,23.40
2022-09-04T07:57:06.110Z,23.50
2022-09-04T07:59:43.314Z,23.70
2022-09-04T08:02:16.310Z,23.70
2022-09-04T08:04:58.653Z,23.80
2022-09-04T08:07:47.955Z,23.90
2022-09-04T08:10:33.942Z,23.90
2022-09-04T08:13:08.845Z,23.90
2022-09-04T08:15:39.815Z,24.00
2022-09-04T08:18:09.085Z,24.10
2022-09-04T08:20:40.345Z,24.10
2022-09-04T08:23:19.480Z,24.20
2022-09-04T08:25:53.217Z,24.30
2022-09-04T08:28:24.409Z,24.30
2022-09-04T08:30:56.654Z,24.30
2022-09-04T08:33:32.465Z,24.40
2022-09-04T08:36:10.342Z,24.50
2022-09-04T08:38:43.233Z,24.60
2022-09-04T08:41:34.829Z,24.70
2022-09-04T08:44:18.382Z,24.90
2022-09-04T08:46:49.427Z,25.00
2022-09-04T08:49:34.687Z,25.00
2022-09-04T08:52:20.490Z,25.10
2022-09-04T08:55:07.327Z,25.20
2022-09-04T08:57:40.369Z,25.40
2022-09-04T09:00:18.211Z,25.60
2022-09-04T09:02:53.932Z,25.70
2022-09-04T09:05:30.041Z,25.90
2022-09-04T09:08:13.678Z,25.90
2022-09-04T09:11:02.103Z,26.10
2022-09-04T09:13:29.112Z,26.20
2022-09-04T09:16:09.483Z,26.40
2022-09-04T09:18:54.996Z,26.60
2022-09-04T09:21:36.201Z,26.60
2022-09-04T09:24:09.194Z,26.70
2022-09-04T09:26:51.481Z,26.80
2022-09-04T09:29:45.165Z,26.90
2022-09-04T09:32:37.637Z,26.80
2022-09-04T09:35:29.261Z,27.00
2022-09-04T09:38:14.733Z,26.90
2022-09-04T09:41:11.041Z,26.80
2022-09-04T09:43:40.060Z,27.00
2022-09-04T09:46:20.094Z,27.00
2022-09-04T09:48:49.790Z,27.00
2022-09-04T09:51:42.893Z,27.10
2022-09-04T09:54:28.391Z,27.20
2022-09-04T09:56:55.725Z,27.40
2022-09-04T09:59:37.719Z,27.60
2022-09-04T10:02:04.771Z,27.80
2022-09-04T10:04:34.638Z,27.70
2022-09-04T10:07:01.518Z,27.50
2022-09-04T10:09:48.281Z,27.40
2022-09-04T10:12:33.819Z,27.40
2022-09-04T10:15:09.846Z,27.50
2022-09-04T10:17:36.673Z,27.60
2022-09-04T10:20:28.404Z,27.60
2022-09-04T10:23:14.708Z,27.70
2022-09-04T10:25:50.691Z,27.80
2022-09-04T10:28:26.638Z,27.90
2022-09-04T10:31:12.301Z,27.80
2022-09-04T10:33:58.404Z,27.60
2022-09-04T10:36:31.374Z,27.60
2022-09-04T10:39:31.961Z,27.50
2022-09-04T10:42:17.393Z,27.80
2022-09-04T10:44:53.347Z,28.20
2022-09-04T10:47:39.046Z,28.40
2022-09-04T10:50:13.476Z,28.50
2022-09-04T10:53:01.258Z,28.50
2022-09-04T10:55:33.140Z,28.70
2022-09-04T10:58:02.919Z,28.70
2022-09-04T11:00:50.270Z,28.70
2022-09-04T11:03:28.350Z,28.90
2022-09-04T11:05:55.436Z,29.00
2022-09-04T11:08:23.516Z,29.00
2022-09-04T11:10:59.673Z,29.10
2022-09-04T11:14:03.668Z,29.10
2022-09-04T11:16:57.551Z,29.20
2022-09-04T11:19:32.272Z,29.50
2022-09-04T11:22:20.025Z,29.40
2022-09-04T11:24:49.875Z,29.20
2022-09-04T11:27:34.549Z,29.40
2022-09-04T11:30:17.011Z,29.60
2022-09-04T11:32:58.678Z,29.60
2022-09-04T11:35:40.855Z,29.60
2022-09-04T11:38:09.809Z,29.70
2022-09-04T11:40:42.828Z,29.90
2022-09-04T11:43:19.357Z,30.00
2022-09-04T11:45:56.383Z,29.70
2022-09-04T11:48:44.864Z,29.60
2022-09-04T11:51:37.331Z,29.60
2022-09-04T11:54:25.655Z,29.70
2022-09-04T11:56:55.150Z,29.90
2022-09-04T11:59:43.184Z,30.00
2022-09-04T12:02:53.518Z,30.20
2022-09-04T12:05:40.384Z,30.20
2022-09-04T12:08:29.750Z,30.20
2022-09-04T12:11:15.406Z,30.20
2022-09-04T12:13:55.437Z,30.00
2022-09-04T12:16:38.761Z,30.10
2022-09-04T12:19:14.577Z,30.00
2022-09-04T12:21:48.988Z,30.00
2022-09-04T12:24:30.945Z,30.20
2022-09-04T12:27:16.502Z,30.50
2022-09-04T12:29:50.455Z,30.50
2022-09-04T12:32:36.082Z,30.70
2022-09-04T12:35:31.723Z,31.00
2022-09-04T12:38:05.066Z,31.10
2022-09-04T12:40:34.514Z,31.20
2022-09-04T12:43:16.718Z,30.80
2022-09-04T12:45:59.051Z,30.40
2022-09-04T12:48:39.271Z,29.80
2022-09-04T12:51:17.993Z,29.60
2022-09-04T12:54:09.010Z,29.40
2022-09-04T12:56:49.383Z,29.20
2022-09-04T12:59:26.754Z,29.10
2022-09-04T13:01:59.950Z,28.90
2022-09-04T13:04:47.505Z,28.80
2022-09-04T13:07:16.343Z,28.70
2022-09-04T13:09:53.642Z,28.60
2022-09-04T13:12:39.711Z,28.50
2022-09-04T13:15:13.519Z,28.40
2022-09-04T13:17:43.702Z,28.40
2022-09-04T13:20:36.094Z,28.70
2022-09-04T13:23:05.886Z,29.10
2022-09-04T13:26:04.209Z,29.70
2022-09-04T13:28:48.683Z,30.00
2022-09-04T13:31:18.651Z,30.30
2022-09-04T13:33:56.040Z,30.60
2022-09-04T13:36:24.062Z,30.50
2022-09-04T13:39:10.801Z,30.60
2022-09-04T13:41:57.005Z,30.80
2022-09-04T13:44:24.234Z,31.20
2022-09-04T13:46:58.046Z,31.30
2022-09-04T13:49:31.442Z,31.50
2022-09-04T13:55:38.597Z,31.70
2022-09-04T13:58:20.252Z,31.60
2022-09-04T14:00:49.449Z,30.90
2022-09-04T14:03:25.759Z,30.50
2022-09-04T14:05:52.996Z,30.40
2022-09-04T14:08:21.198Z,30.30
2022-09-04T14:11:00.196Z,30.40
2022-09-04T14:13:37.326Z,30.50
2022-09-04T14:16:09.938Z,30.70
2022-09-04T14:18:46.026Z,30.90
2022-09-04T14:21:26.876Z,30.90
2022-09-04T14:24:26.255Z,30.50
2022-09-04T14:26:53.045Z,30.30
2022-09-04T14:29:50.618Z,30.20
2022-09-04T14:32:56.896Z,30.10
2022-09-04T14:35:28.466Z,30.30
2022-09-04T14:38:21.147Z,30.00
2022-09-04T14:40:52.343Z,29.70
2022-09-04T14:43:26.103Z,29.40
2022-09-04T14:46:13.077Z,29.20
2022-09-04T14:48:44.708Z,29.00
2022-09-04T14:51:17.943Z,28.80
2022-09-04T14:53:51.254Z,28.80
2022-09-04T14:59:26.582Z,29.00
2022-09-04T15:02:08.871Z,29.20
2022-09-04T15:04:39.734Z,29.20
2022-09-04T15:07:21.006Z,29.20
2022-09-04T15:09:49.617Z,29.00
2022-09-04T15:12:26.848Z,28.80
2022-09-04T15:15:10.296Z,29.10
2022-09-04T15:17:40.069Z,29.30
2022-09-04T15:20:17.171Z,29.40
2022-09-04T15:22:49.324Z,29.70
2022-09-04T15:25:19.203Z,30.60
2022-09-04T15:28:19.560Z,31.60
2022-09-04T15:31:00.526Z,32.30
2022-09-04T15:33:27.348Z,32.20
2022-09-04T15:36:05.111Z,32.00
2022-09-04T15:38:32.711Z,32.40
2022-09-04T15:41:16.755Z,33.10
2022-09-04T15:43:47.143Z,33.60
2022-09-04T15:46:20.051Z,34.20
2022-09-04T15:48:53.506Z,34.60
2022-09-04T15:51:27.207Z,34.70
2022-09-04T15:54:13.271Z,34.90
2022-09-04T15:57:01.217Z,34.90
2022-09-04T15:59:35.444Z,34.60
2022-09-04T16:02:07.716Z,34.10
2022-09-04T16:04:37.858Z,33.70
2022-09-04T16:07:20.628Z,33.60
2022-09-04T16:09:54.314Z,33.40
2022-09-04T16:12:37.145Z,33.40
2022-09-04T16:15:18.212Z,33.10
2022-09-04T16:17:46.874Z,32.40
2022-09-04T16:20:29.860Z,31.50
2022-09-04T16:23:03.914Z,30.80
2022-09-04T16:25:53.541Z,30.20
2022-09-04T16:28:23.494Z,29.80
2022-09-04T16:31:16.905Z,29.40
2022-09-04T16:33:43.771Z,29.20
2022-09-04T16:36:26.062Z,29.00
2022-09-04T16:39:14.459Z,28.90
2022-09-04T16:41:50.441Z,28.80
2022-09-04T16:44:25.785Z,28.60
2022-09-04T16:47:04.726Z,28.50
2022-09-04T16:49:53.478Z,28.50
2022-09-04T16:52:39.339Z,28.40
2022-09-04T16:55:27.246Z,28.20
2022-09-04T17:07:47.298Z,27.70
2022-09-04T18:05:21.842Z,25.40
2022-09-04T18:08:09.127Z,25.30
2022-09-04T18:10:38.523Z,25.20
2022-09-04T18:13:36.187Z,25.10
2022-09-04T18:16:15.301Z,25.10
2022-09-04T18:18:42.176Z,25.10
2022-09-04T18:21:15.818Z,25.00
2022-09-04T18:23:46.427Z,24.90
2022-09-04T18:26:39.953Z,24.90
2022-09-04T18:30:06.648Z,24.80
2022-09-04T18:37:09.779Z,24.70
2022-09-04T18:37:22.076Z,24.70
2022-09-04T18:37:47.664Z,24.60
2022-09-04T18:41:26.653Z,24.50
2022-09-04T18:50:20.163Z,24.50
2022-09-04T18:50:30.452Z,24.30
2022-09-04T18:50:31.189Z,24.40
2022-09-04T18:51:58.307Z,24.30
2022-09-04T18:54:33.918Z,24.30
2022-09-04T18:57:06.719Z,24.30
2022-09-04T18:59:37.527Z,24.30
2022-09-04T19:02:14.644Z,24.20
2022-09-04T19:04:57.973Z,24.20
2022-09-04T19:07:43.785Z,24.10
2022-09-04T19:10:16.718Z,24.10
2022-09-04T19:12:47.904Z,24.10
2022-09-04T19:15:36.789Z,24.10
2022-09-04T19:18:14.025Z,24.10
2022-09-04T19:20:52.683Z,24.10
2022-09-04T19:23:26.061Z,24.00
2022-09-04T19:25:54.922Z,24.00
2022-09-04T19:28:25.192Z,23.90
2022-09-04T19:30:54.476Z,23.90
2022-09-04T19:33:31.604Z,23.80
2022-09-04T19:36:13.203Z,23.80
2022-09-04T19:44:13.586Z,23.80
2022-09-04T19:46:04.808Z,23.70
2022-09-04T19:46:19.915Z,23.60
2022-09-04T19:47:29.131Z,23.70
2022-09-04T19:53:18.301Z,23.70
2022-09-04T19:53:36.729Z,23.70
2022-09-04T19:55:46.252Z,23.70
2022-09-04T19:58:22.209Z,23.70
2022-09-04T20:00:54.448Z,23.70
2022-09-04T20:03:30.966Z,23.70
2022-09-04T20:06:20.689Z,23.60
2022-09-04T20:08:51.987Z,23.60
2022-09-04T20:11:35.712Z,23.60
2022-09-04T20:14:13.991Z,23.60
2022-09-04T20:16:56.178Z,23.60
2022-09-04T20:19:45.104Z,23.60
2022-09-04T20:22:27.214Z,23.60
2022-09-04T20:25:01.884Z,23.50
2022-09-04T20:27:33.124Z,23.50
2022-09-04T20:30:55.618Z,23.50
2022-09-04T21:46:36.191Z,23.20
2022-09-04T21:49:26.411Z,23.20
2022-09-04T21:51:55.685Z,23.20
2022-09-04T21:55:50.153Z,23.20
2022-09-04T22:02:26.074Z,23.10
2022-09-04T22:02:44.442Z,23.10
2022-09-04T22:10:52.875Z,23.00
2022-09-04T22:13:42.208Z,23.00
2022-09-04T22:18:47.237Z,23.00
2022-09-04T22:21:46.966Z,23.00
2022-09-04T22:24:19.022Z,23.00
2022-09-04T22:27:02.934Z,23.00
2022-09-04T22:29:47.654Z,23.00
2022-09-04T22:32:20.336Z,23.00
2022-09-04T22:37:32.462Z,22.90
2022-09-04T22:40:15.766Z,22.80
2022-09-04T22:43:02.477Z,22.80
2022-09-04T22:45:39.017Z,22.80
2022-09-04T22:48:22.754Z,22.80
2022-09-04T22:50:51.180Z,22.80
2022-09-04T22:56:55.835Z,22.70
2022-09-04T22:59:43.111Z,22.70
2022-09-04T23:02:17.515Z,22.70
2022-09-04T23:04:47.569Z,22.80
2022-09-04T23:10:12.473Z,22.80
2022-09-04T23:13:50.737Z,22.80
2022-09-04T23:14:07.655Z,22.70
2022-09-04T23:16:50.269Z,22.70
2022-09-04T23:26:23.452Z,22.60
2022-09-04T23:26:50.900Z,22.60
2022-09-04T23:26:58.454Z,22.60
2022-09-04T23:27:54.833Z,22.60
2022-09-04T23:30:25.258Z,22.60
2022-09-04T23:33:03.435Z,22.70
2022-09-04T23:35:54.158Z,22.70
2022-09-04T23:38:44.297Z,22.60
2022-09-04T23:41:36.021Z,22.60
2022-09-04T23:44:25.372Z,22.60
2022-09-04T23:47:48.162Z,22.60
2022-09-04T23:50:13.078Z,22.60
2022-09-04T23:52:55.004Z,22.50
2022-09-04T23:55:45.016Z,22.50
2022-09-04T23:59:03.919Z,22.50
